createdAt,value
2023-02-03T00:01:44.149Z,8.88
2023-02-03T00:04:12.334Z,8.86
2023-02-03T00:06:41.255Z,8.85
2023-02-03T00:09:09.401Z,8.78
2023-02-03T00:11:37.565Z,8.77
2023-02-03T00:14:07.999Z,8.75
2023-02-03T00:16:36.417Z,8.79
2023-02-03T00:19:05.859Z,8.81
2023-02-03T00:21:33.970Z,8.79
2023-02-03T00:24:01.915Z,8.77
2023-02-03T00:26:30.028Z,8.74
2023-02-03T00:29:00.731Z,8.77
2023-02-03T00:31:28.868Z,8.85
2023-02-03T00:33:58.582Z,8.82
2023-02-03T00:36:28.379Z,8.85
2023-02-03T00:38:56.336Z,8.86
2023-02-03T00:41:24.660Z,8.88
2023-02-03T00:43:53.017Z,8.91
2023-02-03T00:46:21.066Z,8.89
2023-02-03T00:48:49.373Z,8.91
2023-02-03T00:51:17.441Z,8.92
2023-02-03T00:53:46.801Z,8.92
2023-02-03T00:56:14.973Z,8.94
2023-02-03T00:58:43.002Z,8.98
2023-02-03T01:01:11.617Z,9.05
2023-02-03T01:03:39.759Z,9.01
2023-02-03T01:06:16.194Z,9.06
2023-02-03T01:08:45.940Z,9.04
2023-02-03T01:11:17.141Z,9.06
2023-02-03T01:13:47.518Z,9.08
2023-02-03T01:16:17.751Z,9.14
2023-02-03T01:18:46.767Z,9.13
2023-02-03T01:21:17.154Z,9.18
2023-02-03T01:23:46.855Z,9.14
2023-02-03T01:26:39.399Z,9.21
2023-02-03T01:29:07.403Z,9.19
2023-02-03T01:31:39.662Z,9.23
2023-02-03T01:34:10.391Z,9.26
2023-02-03T01:36:38.617Z,9.27
2023-02-03T01:39:07.966Z,9.28
2023-02-03T01:41:38.307Z,9.23
2023-02-03T01:44:39.447Z,9.28
2023-02-03T01:47:14.942Z,9.32
2023-02-03T01:49:48.481Z,9.33
2023-02-03T01:52:17.616Z,9.31
2023-02-03T01:54:51.132Z,9.35
2023-02-03T01:57:23.997Z,9.30
2023-02-03T01:59:53.664Z,9.30
2023-02-03T02:02:22.243Z,9.32
2023-02-03T02:04:57.761Z,9.35
2023-02-03T02:07:25.963Z,9.47
2023-02-03T02:09:56.613Z,9.41
2023-02-03T02:12:24.727Z,9.39
2023-02-03T02:14:52.999Z,9.38
2023-02-03T02:17:46.439Z,9.35
2023-02-03T02:20:36.765Z,9.38
2023-02-03T02:23:27.893Z,9.41
2023-02-03T02:26:29.457Z,9.41
2023-02-03T02:29:29.683Z,9.44
2023-02-03T02:32:06.207Z,9.41
2023-02-03T02:34:47.322Z,9.36
2023-02-03T02:37:24.816Z,9.41
2023-02-03T02:39:59.211Z,9.40
2023-02-03T02:42:35.416Z,9.40
2023-02-03T02:45:11.523Z,9.37
2023-02-03T02:47:41.563Z,9.41
2023-02-03T02:50:17.524Z,9.33
2023-02-03T02:52:48.062Z,9.40
2023-02-03T02:55:19.928Z,9.39
2023-02-03T02:57:49.139Z,9.36
2023-02-03T03:00:20.627Z,9.38
2023-02-03T03:02:50.342Z,9.33
2023-02-03T03:05:19.852Z,9.31
2023-02-03T03:07:59.171Z,9.33
2023-02-03T03:10:32.624Z,9.39
2023-02-03T03:13:04.101Z,9.29
2023-02-03T03:15:34.893Z,9.28
2023-02-03T03:18:09.400Z,9.32
2023-02-03T03:20:42.886Z,9.29
2023-02-03T03:23:17.209Z,9.29
2023-02-03T03:25:47.979Z,9.31
2023-02-03T03:28:24.101Z,9.30
2023-02-03T03:30:52.174Z,9.32
2023-02-03T03:33:22.868Z,9.28
2023-02-03T03:35:58.194Z,9.30
2023-02-03T03:38:33.185Z,9.33
2023-02-03T03:41:08.052Z,9.28
2023-02-03T03:43:42.852Z,9.25
2023-02-03T03:46:15.216Z,9.25
2023-02-03T03:48:53.161Z,9.24
2023-02-03T03:51:27.157Z,9.26
2023-02-03T03:53:58.988Z,9.19
2023-02-03T03:56:31.911Z,9.20
2023-02-03T03:59:03.790Z,9.18
2023-02-03T04:01:33.417Z,9.16
2023-02-03T04:04:07.207Z,9.16
2023-02-03T04:06:35.605Z,9.09
2023-02-03T04:09:03.582Z,9.06
2023-02-03T04:11:49.067Z,9.09
2023-02-03T04:14:17.075Z,9.04
2023-02-03T04:16:45.213Z,9.02
2023-02-03T04:19:14.570Z,8.98
2023-02-03T04:21:42.616Z,8.99
2023-02-03T04:24:12.004Z,9.02
2023-02-03T04:26:40.106Z,8.95
2023-02-03T04:29:08.403Z,8.95
2023-02-03T04:31:36.594Z,8.97
2023-02-03T04:34:04.590Z,8.92
2023-02-03T04:36:34.049Z,8.91
2023-02-03T04:39:02.072Z,8.87
2023-02-03T04:41:54.937Z,8.84
2023-02-03T04:44:23.127Z,8.85
2023-02-03T04:46:54.480Z,8.83
2023-02-03T04:49:22.704Z,8.83
2023-02-03T04:51:52.375Z,8.84
2023-02-03T04:54:20.397Z,8.82
2023-02-03T04:56:48.371Z,8.85
2023-02-03T04:59:16.385Z,8.82
2023-02-03T05:01:50.481Z,8.86
2023-02-03T05:04:21.393Z,8.89
2023-02-03T05:06:49.781Z,8.82
2023-02-03T05:09:19.155Z,8.82
2023-02-03T05:11:48.081Z,8.80
2023-02-03T05:14:16.025Z,8.86
2023-02-03T05:16:44.426Z,8.82
2023-02-03T05:19:12.894Z,8.86
2023-02-03T05:21:40.955Z,8.87
2023-02-03T05:24:09.238Z,8.88
2023-02-03T05:26:38.554Z,8.88
2023-02-03T05:29:07.756Z,8.81
2023-02-03T05:31:36.024Z,8.79
2023-02-03T05:34:53.923Z,8.82
2023-02-03T05:37:21.946Z,8.85
2023-02-03T05:39:50.016Z,8.81
2023-02-03T05:42:18.328Z,8.82
2023-02-03T05:44:46.375Z,8.81
2023-02-03T05:47:14.399Z,8.75
2023-02-03T05:49:42.355Z,8.76
2023-02-03T05:52:10.449Z,8.72
2023-02-03T05:54:38.367Z,8.70
2023-02-03T05:57:06.359Z,8.76
2023-02-03T05:59:35.783Z,8.78
2023-02-03T06:02:03.883Z,8.78
2023-02-03T06:04:32.056Z,8.78
2023-02-03T06:07:00.131Z,8.76
2023-02-03T06:09:28.062Z,8.77
2023-02-03T06:11:56.035Z,8.71
2023-02-03T06:14:24.147Z,8.79
2023-02-03T06:16:53.637Z,8.78
2023-02-03T06:19:21.733Z,8.78
2023-02-03T06:21:49.719Z,8.83
2023-02-03T06:24:18.051Z,8.80
2023-02-03T06:26:46.018Z,8.78
2023-02-03T06:29:14.017Z,8.77
2023-02-03T06:31:42.210Z,8.78
2023-02-03T06:34:11.749Z,8.73
2023-02-03T06:36:39.719Z,8.77
2023-02-03T06:39:07.792Z,8.71
2023-02-03T06:41:35.744Z,8.77
2023-02-03T06:44:03.875Z,8.75
2023-02-03T06:46:33.883Z,8.72
2023-02-03T06:49:02.056Z,8.72
2023-02-03T06:51:31.690Z,8.70
2023-02-03T06:53:59.811Z,8.74
2023-02-03T06:56:27.821Z,8.79
2023-02-03T06:58:55.948Z,8.70
2023-02-03T07:01:26.015Z,8.75
2023-02-03T07:03:57.814Z,8.72
2023-02-03T07:06:29.063Z,8.78
2023-02-03T07:09:01.645Z,8.76
2023-02-03T07:11:30.349Z,8.75
2023-02-03T07:13:59.695Z,8.74
2023-02-03T07:16:28.487Z,8.80
2023-02-03T07:18:56.485Z,8.77
2023-02-03T07:21:24.497Z,8.76
2023-02-03T07:23:52.392Z,8.79
2023-02-03T07:26:23.025Z,8.76
2023-02-03T07:28:52.617Z,8.74
2023-02-03T07:31:20.909Z,8.78
2023-02-03T07:33:49.000Z,8.75
2023-02-03T07:36:17.039Z,8.72
2023-02-03T07:38:44.933Z,8.75
2023-02-03T07:41:13.072Z,8.77
2023-02-03T07:43:42.423Z,8.73
2023-02-03T07:46:11.534Z,8.71
2023-02-03T07:48:40.002Z,8.69
2023-02-03T07:51:08.273Z,8.70
2023-02-03T07:53:36.582Z,8.70
2023-02-03T07:56:06.180Z,8.74
2023-02-03T07:59:24.115Z,8.69
2023-02-03T08:01:56.181Z,8.70
2023-02-03T08:04:24.833Z,8.74
2023-02-03T08:06:52.793Z,8.76
2023-02-03T08:09:20.864Z,8.69
2023-02-03T08:11:49.972Z,8.69
2023-02-03T08:14:18.129Z,8.74
2023-02-03T08:16:46.248Z,8.73
2023-02-03T08:19:16.143Z,8.73
2023-02-03T08:21:44.577Z,8.70
2023-02-03T08:24:13.008Z,8.77
2023-02-03T08:26:41.168Z,8.71
2023-02-03T08:29:09.282Z,8.73
2023-02-03T08:31:37.463Z,8.78
2023-02-03T08:34:15.093Z,8.84
2023-02-03T08:36:44.614Z,8.80
2023-02-03T08:39:13.282Z,8.80
2023-02-03T08:41:41.291Z,8.78
2023-02-03T08:44:09.349Z,8.84
2023-02-03T08:46:43.447Z,8.90
2023-02-03T08:49:11.899Z,8.83
2023-02-03T08:51:40.717Z,8.86
2023-02-03T08:54:10.245Z,8.89
2023-02-03T08:56:38.483Z,8.95
2023-02-03T08:59:06.698Z,8.97
2023-02-03T09:01:36.786Z,9.00
2023-02-03T09:04:07.325Z,9.01
2023-02-03T09:06:35.947Z,8.97
2023-02-03T09:09:04.781Z,9.02
2023-02-03T09:11:34.224Z,8.99
2023-02-03T09:14:02.350Z,9.14
2023-02-03T09:16:31.068Z,9.14
2023-02-03T09:18:59.300Z,9.14
2023-02-03T09:21:40.810Z,9.16
2023-02-03T09:24:11.182Z,9.14
2023-02-03T09:26:40.626Z,9.17
2023-02-03T09:29:08.760Z,9.20
2023-02-03T09:31:36.978Z,9.23
2023-02-03T09:34:05.063Z,9.28
2023-02-03T09:36:33.059Z,9.29
2023-02-03T09:39:01.346Z,9.37
2023-02-03T09:41:48.491Z,9.47
2023-02-03T09:44:23.714Z,9.44
2023-02-03T09:46:56.897Z,9.53
2023-02-03T09:49:29.776Z,9.54
2023-02-03T09:52:04.016Z,9.60
2023-02-03T09:54:42.499Z,9.66
2023-02-03T09:57:18.083Z,9.64
2023-02-03T09:59:46.222Z,9.77
2023-02-03T10:02:44.072Z,9.73
2023-02-03T10:05:20.965Z,9.85
2023-02-03T10:08:01.131Z,9.85
2023-02-03T10:10:39.038Z,9.96
2023-02-03T10:13:24.060Z,9.99
2023-02-03T10:16:09.392Z,9.92
2023-02-03T10:18:42.058Z,10.04
2023-02-03T10:21:18.191Z,10.14
2023-02-03T10:23:49.565Z,10.12
2023-02-03T10:26:21.671Z,10.21
2023-02-03T10:28:56.103Z,10.18
2023-02-03T10:31:25.628Z,10.25
2023-02-03T10:34:00.768Z,10.31
2023-02-03T10:36:39.508Z,10.49
2023-02-03T10:39:19.065Z,10.54
2023-02-03T10:41:47.351Z,10.43
2023-02-03T10:44:17.133Z,10.61
2023-02-03T10:46:46.454Z,10.68
2023-02-03T10:49:16.485Z,10.70
2023-02-03T10:51:50.893Z,10.70
2023-02-03T10:54:31.957Z,10.80
2023-02-03T10:57:05.708Z,10.89
2023-02-03T10:59:36.956Z,10.96
2023-02-03T11:02:09.993Z,10.95
2023-02-03T11:04:38.549Z,11.13
2023-02-03T11:07:08.304Z,11.25
2023-02-03T11:09:38.682Z,11.22
2023-02-03T11:12:09.674Z,11.29
2023-02-03T11:14:39.865Z,11.42
2023-02-03T11:17:10.232Z,11.49
2023-02-03T11:19:40.432Z,11.47
2023-02-03T11:22:08.423Z,11.38
2023-02-03T11:24:40.629Z,11.37
2023-02-03T11:27:13.370Z,11.43
2023-02-03T11:29:45.678Z,11.42
2023-02-03T11:32:23.023Z,11.51
2023-02-03T11:34:58.118Z,11.50
2023-02-03T11:37:33.068Z,11.57
2023-02-03T11:40:26.409Z,11.59
2023-02-03T11:43:06.437Z,11.56
2023-02-03T11:45:42.182Z,11.48
2023-02-03T11:48:24.091Z,11.56
2023-02-03T11:51:00.060Z,11.73
2023-02-03T11:53:47.835Z,11.69
2023-02-03T11:56:33.809Z,11.83
2023-02-03T11:59:22.363Z,11.91
2023-02-03T12:02:22.643Z,11.90
2023-02-03T12:05:05.720Z,12.11
2023-02-03T12:07:57.967Z,12.22
2023-02-03T12:10:36.672Z,12.11
2023-02-03T12:13:21.243Z,12.30
2023-02-03T12:16:11.222Z,12.27
2023-02-03T12:18:50.925Z,12.32
2023-02-03T12:21:40.698Z,12.47
2023-02-03T12:24:16.844Z,12.55
2023-02-03T12:26:55.359Z,12.66
2023-02-03T12:29:31.871Z,12.68
2023-02-03T12:32:08.604Z,12.69
2023-02-03T12:34:48.567Z,12.66
2023-02-03T12:37:20.807Z,12.47
2023-02-03T12:39:53.488Z,12.70
2023-02-03T12:42:26.645Z,12.84
2023-02-03T12:45:03.481Z,12.88
2023-02-03T12:47:35.417Z,13.22
2023-02-03T12:50:08.777Z,13.21
2023-02-03T12:52:42.300Z,13.30
2023-02-03T12:55:23.945Z,13.07
2023-02-03T12:57:58.738Z,12.87
2023-02-03T13:00:38.416Z,13.07
2023-02-03T13:03:14.157Z,13.10
2023-02-03T13:05:51.776Z,13.26
2023-02-03T13:08:31.336Z,13.21
2023-02-03T13:11:12.945Z,13.23
2023-02-03T13:13:48.862Z,13.36
2023-02-03T13:16:22.421Z,13.53
2023-02-03T13:18:56.810Z,13.44
2023-02-03T13:21:26.432Z,13.46
2023-02-03T13:23:54.624Z,13.56
2023-02-03T13:26:48.660Z,13.93
2023-02-03T13:29:34.377Z,14.04
2023-02-03T13:32:16.427Z,14.24
2023-02-03T13:35:01.038Z,14.07
2023-02-03T13:37:59.162Z,13.86
2023-02-03T13:40:39.502Z,13.84
2023-02-03T13:43:23.000Z,14.07
2023-02-03T13:46:01.481Z,13.94
2023-02-03T13:48:32.212Z,13.53
2023-02-03T13:51:09.635Z,13.84
2023-02-03T13:53:41.903Z,13.83
2023-02-03T13:56:20.125Z,13.82
2023-02-03T13:59:02.273Z,13.60
2023-02-03T14:01:41.263Z,13.64
2023-02-03T14:04:31.712Z,13.19
2023-02-03T14:07:02.126Z,13.43
2023-02-03T14:09:41.655Z,13.49
2023-02-03T14:12:39.967Z,13.54
2023-02-03T14:15:39.617Z,13.22
2023-02-03T14:18:32.939Z,13.32
2023-02-03T14:21:23.381Z,13.46
2023-02-03T14:24:04.454Z,13.45
2023-02-03T14:26:42.410Z,13.25
2023-02-03T14:29:24.621Z,13.31
2023-02-03T14:31:56.712Z,12.94
2023-02-03T14:34:34.159Z,12.95
2023-02-03T14:37:27.555Z,12.96
2023-02-03T14:40:29.455Z,12.82
2023-02-03T14:43:21.661Z,12.90
2023-02-03T14:46:18.107Z,12.78
2023-02-03T14:48:58.858Z,12.89
2023-02-03T14:51:41.550Z,12.81
2023-02-03T14:54:25.836Z,12.62
2023-02-03T14:57:19.646Z,12.61
2023-02-03T14:59:55.095Z,12.58
2023-02-03T15:02:26.576Z,12.60
2023-02-03T15:05:37.945Z,12.60
2023-02-03T15:08:05.923Z,12.46
2023-02-03T15:10:43.184Z,12.47
2023-02-03T15:13:27.366Z,12.56
2023-02-03T15:15:58.018Z,12.53
2023-02-03T15:18:31.663Z,12.37
2023-02-03T15:21:04.540Z,12.28
2023-02-03T15:23:43.209Z,12.25
2023-02-03T15:26:15.330Z,12.18
2023-02-03T15:28:43.535Z,12.33
2023-02-03T15:31:20.274Z,12.10
2023-02-03T15:33:50.443Z,12.17
2023-02-03T15:36:23.539Z,12.18
2023-02-03T15:38:58.646Z,12.01
2023-02-03T15:41:27.539Z,12.04
2023-02-03T15:44:00.897Z,12.01
2023-02-03T15:46:33.841Z,12.06
2023-02-03T15:49:07.406Z,11.90
2023-02-03T15:51:43.982Z,11.98
2023-02-03T15:54:17.559Z,11.94
2023-02-03T15:56:55.083Z,12.04
2023-02-03T15:59:27.438Z,11.93
2023-02-03T16:01:55.889Z,11.79
2023-02-03T16:04:25.919Z,11.68
2023-02-03T16:06:57.254Z,11.87
2023-02-03T16:09:29.979Z,11.75
2023-02-03T16:12:17.134Z,11.80
2023-02-03T16:14:46.042Z,11.69
2023-02-03T16:17:27.412Z,11.64
2023-02-03T16:20:22.405Z,11.71
2023-02-03T16:23:05.087Z,11.63
2023-02-03T16:25:35.066Z,11.61
2023-02-03T16:28:23.295Z,11.63
2023-02-03T16:31:16.333Z,11.61
2023-02-03T16:34:04.395Z,11.51
2023-02-03T16:36:53.211Z,11.61
2023-02-03T16:39:40.012Z,11.51
2023-02-03T16:42:33.204Z,11.46
2023-02-03T16:45:19.369Z,11.46
2023-02-03T16:48:05.915Z,11.46
2023-02-03T16:50:51.179Z,11.38
2023-02-03T16:53:21.626Z,11.39
2023-02-03T16:55:52.130Z,11.27
2023-02-03T16:58:20.515Z,11.30
2023-02-03T17:00:53.161Z,11.34
2023-02-03T17:03:24.152Z,11.41
2023-02-03T17:05:53.347Z,11.28
2023-02-03T17:08:24.170Z,11.33
2023-02-03T17:10:53.805Z,11.29
2023-02-03T17:13:24.403Z,11.26
2023-02-03T17:15:53.787Z,11.21
2023-02-03T17:18:22.207Z,11.17
2023-02-03T17:20:50.346Z,11.23
2023-02-03T17:23:18.722Z,11.21
2023-02-03T17:25:48.287Z,11.21
2023-02-03T17:28:18.094Z,11.26
2023-02-03T17:30:46.566Z,11.23
2023-02-03T17:33:14.912Z,11.19
2023-02-03T17:35:45.757Z,11.15
2023-02-03T17:38:17.835Z,11.17
2023-02-03T17:54:40.841Z,11.03
2023-02-03T17:57:08.925Z,11.06
2023-02-03T17:59:39.679Z,10.93
2023-02-03T18:02:07.965Z,10.87
2023-02-03T18:04:36.084Z,10.87
2023-02-03T18:07:04.147Z,10.87
2023-02-03T18:09:32.228Z,10.88
2023-02-03T18:12:00.942Z,10.86
2023-02-03T18:14:29.598Z,10.85
2023-02-03T18:16:59.339Z,10.95
2023-02-03T18:19:27.629Z,10.90
2023-02-03T18:21:55.970Z,10.87
2023-02-03T18:24:27.939Z,10.84
2023-02-03T18:26:57.070Z,10.80
2023-02-03T18:29:26.936Z,10.79
2023-02-03T18:31:55.021Z,10.88
2023-02-03T18:34:25.168Z,10.85
2023-02-03T18:36:53.288Z,10.83
2023-02-03T18:39:21.333Z,10.92
2023-02-03T18:41:49.438Z,10.91
2023-02-03T18:44:17.475Z,10.88
2023-02-03T18:46:46.158Z,10.82
2023-02-03T18:49:14.379Z,10.83
2023-02-03T18:51:44.305Z,10.82
2023-02-03T18:54:13.744Z,10.73
2023-02-03T18:56:41.934Z,10.78
2023-02-03T18:59:11.909Z,10.82
2023-02-03T19:01:40.336Z,10.84
2023-02-03T19:04:08.610Z,10.82
2023-02-03T19:06:37.220Z,10.83
2023-02-03T19:09:07.388Z,10.79
2023-02-03T19:11:35.618Z,10.87
2023-02-03T19:14:03.628Z,10.75
2023-02-03T19:16:32.172Z,10.71
2023-02-03T19:19:00.684Z,10.78
2023-02-03T19:21:28.741Z,10.80
2023-02-03T19:23:57.087Z,10.81
2023-02-03T19:26:27.782Z,10.75
2023-02-03T19:28:56.901Z,10.73
2023-02-03T19:31:25.037Z,10.64
2023-02-03T19:33:53.041Z,10.67
2023-02-03T19:36:21.282Z,10.63
2023-02-03T19:38:49.753Z,10.53
2023-02-03T19:41:17.891Z,10.55
2023-02-03T19:43:47.878Z,10.57
2023-02-03T19:46:16.169Z,10.46
2023-02-03T19:48:44.612Z,10.45
2023-02-03T19:51:13.885Z,10.43
2023-02-03T19:53:42.295Z,10.41
2023-02-03T19:56:10.420Z,10.36
2023-02-03T19:58:39.005Z,10.36
2023-02-03T20:01:10.433Z,10.31
2023-02-03T20:03:39.530Z,10.36
2023-02-03T20:06:08.311Z,10.35
2023-02-03T20:08:36.797Z,10.28
2023-02-03T20:11:05.316Z,10.24
2023-02-03T20:13:33.424Z,10.25
2023-02-03T20:16:01.518Z,10.25
2023-02-03T20:18:31.120Z,10.27
2023-02-03T20:20:59.581Z,10.25
2023-02-03T20:23:27.912Z,10.28
2023-02-03T20:25:56.113Z,10.30
2023-02-03T20:28:25.641Z,10.29
2023-02-03T20:30:56.580Z,10.31
2023-02-03T20:33:27.593Z,10.33
2023-02-03T20:35:58.367Z,10.36
2023-02-03T20:38:26.612Z,10.35
2023-02-03T20:40:54.928Z,10.35
2023-02-03T20:43:25.125Z,10.32
2023-02-03T20:45:53.740Z,10.36
2023-02-03T20:48:24.047Z,10.39
2023-02-03T20:50:52.702Z,10.37
2023-02-03T20:53:24.465Z,10.39
2023-02-03T20:56:01.480Z,10.43
2023-02-03T20:58:31.899Z,10.38
2023-02-03T21:01:00.969Z,10.38
2023-02-03T21:03:47.006Z,10.28
2023-02-03T21:06:17.216Z,10.27
2023-02-03T21:08:48.693Z,10.26
2023-02-03T21:11:19.070Z,10.27
2023-02-03T21:13:49.641Z,10.31
2023-02-03T21:16:20.668Z,10.29
2023-02-03T21:18:50.467Z,10.26
2023-02-03T21:21:24.931Z,10.30
2023-02-03T21:23:55.563Z,10.26
2023-02-03T21:26:25.629Z,10.26
2023-02-03T21:28:58.556Z,10.21
2023-02-03T21:31:29.955Z,10.18
2023-02-03T21:33:59.190Z,10.15
2023-02-03T21:36:29.524Z,10.12
2023-02-03T21:39:00.169Z,10.09
2023-02-03T21:41:53.876Z,10.01
2023-02-03T21:44:27.780Z,9.97
2023-02-03T21:46:56.225Z,9.97
2023-02-03T21:49:24.529Z,9.99
2023-02-03T21:51:52.928Z,9.98
2023-02-03T21:54:30.118Z,9.96
2023-02-03T21:56:59.179Z,9.90
2023-02-03T21:59:30.003Z,9.87
2023-02-03T22:01:58.860Z,9.80
2023-02-03T22:04:31.349Z,9.73
2023-02-03T22:06:59.672Z,9.74
2023-02-03T22:09:29.142Z,9.63
2023-02-03T22:11:57.118Z,9.57
2023-02-03T22:14:25.128Z,9.51
2023-02-03T22:16:53.232Z,9.44
2023-02-03T22:19:21.317Z,9.40
2023-02-03T22:21:50.999Z,9.29
2023-02-03T22:24:19.277Z,9.25
2023-02-03T22:26:48.642Z,9.20
2023-02-03T22:29:16.729Z,9.16
2023-02-03T22:31:44.891Z,9.08
2023-02-03T22:34:13.020Z,9.00
2023-02-03T22:36:41.063Z,8.94
2023-02-03T22:39:10.966Z,8.88
2023-02-03T22:41:38.980Z,8.82
2023-02-03T22:44:08.463Z,8.76
2023-02-03T22:46:36.914Z,8.74
2023-02-03T22:49:04.906Z,8.70
2023-02-03T22:51:33.068Z,8.70
2023-02-03T22:54:01.057Z,8.63
2023-02-03T22:56:31.458Z,8.62
2023-02-03T22:58:59.650Z,8.63
2023-02-03T23:01:29.177Z,8.58
2023-02-03T23:03:57.269Z,8.58
2023-02-03T23:06:25.393Z,8.61
2023-02-03T23:08:55.369Z,8.64
2023-02-03T23:11:23.498Z,8.59
2023-02-03T23:13:51.543Z,8.61
2023-02-03T23:16:19.796Z,8.59
2023-02-03T23:18:49.348Z,8.60
2023-02-03T23:21:17.573Z,8.57
2023-02-03T23:23:47.536Z,8.57
2023-02-03T23:26:15.709Z,8.55
2023-02-03T23:28:44.841Z,8.54
2023-02-03T23:31:15.276Z,8.57
2023-02-03T23:37:22.625Z,8.56
2023-02-03T23:39:50.717Z,8.57
2023-02-03T23:42:18.992Z,8.58
2023-02-03T23:44:47.062Z,8.60
2023-02-03T23:47:15.190Z,8.65
2023-02-03T23:49:43.287Z,8.67
2023-02-03T23:52:11.345Z,8.68
2023-02-03T23:54:40.833Z,8.70
2023-02-03T23:57:08.901Z,8.72
2023-02-03T23:59:37.702Z,8.72
